Aérodrome :
LOGIN :

S'inscrire | Disclaimer

   EN    FR    IT 

 










Légende :    VFR   VFR Marginal   IFR   IFR Intensif   IFR Très Intensif
Visi : 
Plafond : 
>= 8 km
>= 3000ft
5 à 8 km
1000 à 3000 ft
1500m à 5 km
500 à 1000 ft
800 à 1500m
200 à 500 ft
< 800m
< 200 ft
Symboles :   Orages  Brouillard  Fortes neiges  Fortes précipitations  Vent > 20 kt
SIGMETs :   Divers  Orages  Givrage  Turbulence  Onde Orograph.  Cendres Volcan.






- Altitude de l'aérodrome : 1487 ft
- Code IATA : MUC


EDDM - München Franz Josef Strauss

DERNIER METAR :
  • 172150Z 26006KT 9999 -RA FEW027 BKN047 06/03 Q1021 TEMPO RA

METARs EXPIRÉS :
  • 172120Z 26006KT 9999 -RA BKN040 06/02 Q1021 TEMPO RA
  • 172050Z 25003KT 9999 -RA FEW038 BKN044 07/01 Q1021 TEMPO RA
  • 172020Z 26003KT 9999 -RA FEW026 BKN046 06/01 Q1021 BECMG 25009KT
  • 171950Z VRB01KT 9999 -RA BKN048 06/01 Q1020 BECMG 25009KT
  • 171920Z 02001KT CAVOK 05/00 Q1020 NOSIG

TAF TAF EDDM
Valide du 17 à 18h jusqu'au 19 à 00h UTC


171700Z 1718/1824 24005KT 9999 BKN040
BECMG 1723/1801 26010KT
TEMPO 1801/1805 RA BKN010
PROB30
TEMPO 1810/1815 4000 -SHRASN BKN020TCU
BECMG 1814/1816 25005KT
PROB30
TEMPO 1815/1824 2000 -SHSN BKN015TCU



MET'MAP, la Météo Aéronautique d'un coup d'oeil ! - Copyright ORBIFLY Décembre 2007 - Disclaimer

ORBIFLY MET'MAP TEAM :

Programmation & Développement : Alexandra Zaïnal
Sur une idée originale de : Baudouin d'Aumeries
Assistance à la programmation : Marc-Olivier Méhu
Soutien technique & logistique : Manuel Goepfert

Contact : metmap@orbifly.com




SOURCES & CREDITS :

   NOAA